Darien, GA (31305)

12:53 PM EDT on August 25, 2016 (GMT -0400)
Country Walk | | Change Station

Elev 30 ft 31.27 °N, 81.48 °W | Updated 7 seconds ago

Scattered Clouds
Scattered Clouds
86.5 °F
Feels Like 95 °F
N
4.0
Wind Variable Wind from NE
Gusts 10.0 mph

Today
High -- | Low -- °F
--% Chance of Precip.
Yesterday
High -- | Low -- °F
Precip. -- in
Pressure 30.15 in
Visibility 10.0 miles
Clouds Scattered Clouds 3700 ft
Scattered Clouds 5500 ft
Scattered Clouds 6500 ft
Heat Index 95 °F
Dew Point 75 °F
Humidity 68%
Rainfall 0.00 in
Snow Depth Not available.
6:57 AM 7:57 PM
Last Quarter, 44% visible
METAR KBQK 251635Z AUTO 05008G14KT 030V090 10SM SCT037 SCT055 SCT065 31/23 A3015 RMK AO2
Pressure 30.15 in
Visibility 10.0 miles
Clouds Scattered Clouds 3700 ft
Scattered Clouds 5500 ft
Scattered Clouds 6500 ft
Heat Index 95 °F
Dew Point 75 °F
Humidity 68%
Rainfall 0.00 in
Snow Depth Not available.
6:57 AM 7:57 PM
Last Quarter, 44% visible
METAR KBQK 251635Z AUTO 05008G14KT 030V090 10SM SCT037 SCT055 SCT065 31/23 A3015 RMK AO2
A tropical disturbance pushing toward the Bahamas, is expected to develop into a tropical depression or storm, and will likely target Florida and the Gulf Coast this weekend into next week.

Right now, the disturbance remains a broad area of low pressure pushing through the Dominican Republic and Haiti, headed toward the southeast Bahamas. Rainfall totals over 3 inches (with locally higher amounts) are expected in HispaƱiola, particularly over elevated terrain.

10-Day Weather Forecast

Almanac

Astronomy

Aug. 25, 2016 Rise Set
Actual Time
Civil Twilight
Nautical Twilight
Astronomical Twilight
Moon
Length of Visible Light
Length of Day
Tomorrow will be .
, % of the Moon is Illuminated

Today's Extremes

State Highs State Lows

Community

WunderPhotos

Upload Photos

1,934,869 photos uploaded!

WunderBlog® & News

Nearby

Air Quality

  Air Quality AQ Index Pollutant
Not available.

Snow Depth

Station Depth Elevation

Earthquake Activity

City Distance Mag. Time & Date
Minimum magnitude displayed is 2.5.

Coastal Water Temperatures

Place Temperature

Stations

Nearby Weather Stations

Station Location Temp. Windchill Dew Point Humidity Wind Precip. Elev Updated Type
                   

Watches & Warnings

There are currently no watches in effect.